Time;durP1;ratioP1;P1;durP2;ratioP2;P2;SDS_P1;SDS_P2;PMS_P1;PMS_P2;Temp;Humidity;BMP_temperature;BMP_pressure;BME280_temperature;BME280_humidity;BME280_pressure;Samples;Min_cycle;Max_cycle;Signal;HPM_P1;HPM_P2
2022/04/08 00:22:02;;;;;;;3.35;3.05;;;;;;;;;;4465604;28;21873;-70
2022/04/08 00:24:31;;;;;;;5.55;3.83;;;;;;;;;;4224412;33;20832;-71
2022/04/08 00:27:00;;;;;;;4.60;3.40;;;;;;;;;;4227878;33;20097;-70
2022/04/08 00:29:26;;;;;;;3.65;3.28;;;;;;;;;;4242678;33;20473;-67
2022/04/08 00:31:57;;;;;;;6.82;3.53;;;;;;;;;;4209169;33;20093;-67
2022/04/08 00:34:25;;;;;;;4.62;3.83;;;;;;;;;;4233673;33;20212;-71
2022/04/08 00:37:00;;;;;;;5.37;3.30;;;;;;;;;;4233410;33;20112;-71
2022/04/08 00:39:26;;;;;;;4.22;3.50;;;;;;;;;;4243088;33;20133;-70
2022/04/08 00:41:54;;;;;;;3.95;3.22;;;;;;;;;;4233612;33;20528;-70
2022/04/08 00:44:20;;;;;;;4.80;3.65;;;;;;;;;;4233774;33;20131;-70
2022/04/08 00:46:47;;;;;;;4.25;3.58;;;;;;;;;;4233469;33;20546;-72
2022/04/08 00:49:13;;;;;;;5.20;3.62;;;;;;;;;;4233517;33;20113;-66
2022/04/08 00:51:40;;;;;;;4.70;3.75;;;;;;;;;;4232211;33;20180;-67
2022/04/08 00:54:06;;;;;;;5.18;3.42;;;;;;;;;;4232208;33;20097;-67
2022/04/08 00:56:33;;;;;;;6.22;3.45;;;;;;;;;;4233162;33;20097;-67
2022/04/08 00:58:59;;;;;;;5.68;3.60;;;;;;;;;;4220292;33;20117;-67
2022/04/08 01:01:25;;;;;;;4.97;3.50;;;;;;;;;;4220472;33;20129;-67
2022/04/08 01:03:52;;;;;;;6.80;3.95;;;;;;;;;;4220202;33;20211;-67
2022/04/08 01:06:21;;;;;;;4.82;3.22;;;;;;;;;;4233375;33;20425;-72
2022/04/08 01:08:49;;;;;;;8.48;3.80;;;;;;;;;;4233051;33;20135;-71
2022/04/08 01:11:18;;;;;;;4.65;3.17;;;;;;;;;;4233412;33;20113;-70
2022/04/08 01:13:45;;;;;;;6.47;3.80;;;;;;;;;;4233190;33;20093;-71
2022/04/08 01:16:11;;;;;;;10.20;3.28;;;;;;;;;;4233311;33;20545;-70
2022/04/08 01:18:37;;;;;;;4.40;3.65;;;;;;;;;;4233167;33;20661;-70
2022/04/08 01:21:07;;;;;;;3.80;3.25;;;;;;;;;;4233285;33;20456;-70
2022/04/08 01:23:36;;;;;;;4.30;3.40;;;;;;;;;;4233141;33;20544;-70
2022/04/08 01:26:06;;;;;;;4.30;3.28;;;;;;;;;;4220355;33;20228;-69
2022/04/08 01:28:33;;;;;;;5.03;3.97;;;;;;;;;;4233214;33;20093;-70
2022/04/08 01:30:59;;;;;;;5.85;3.90;;;;;;;;;;4220527;33;20471;-71
2022/04/08 01:33:25;;;;;;;5.25;3.65;;;;;;;;;;4233171;33;20117;-71
2022/04/08 01:35:51;;;;;;;4.85;4.35;;;;;;;;;;4233295;33;20208;-72
2022/04/08 01:38:17;;;;;;;4.32;3.55;;;;;;;;;;4219814;33;20609;-71
2022/04/08 01:40:43;;;;;;;5.80;4.07;;;;;;;;;;4233503;33;20116;-71
2022/04/08 01:43:08;;;;;;;7.30;3.95;;;;;;;;;;4220105;33;20327;-71
2022/04/08 01:45:34;;;;;;;7.32;4.28;;;;;;;;;;4233407;33;20152;-70
2022/04/08 01:48:03;;;;;;;5.50;3.37;;;;;;;;;;4208237;33;20139;-70
2022/04/08 01:50:29;;;;;;;5.68;3.90;;;;;;;;;;4232903;33;20140;-70
2022/04/08 01:52:55;;;;;;;5.47;4.03;;;;;;;;;;4233198;33;20101;-70
2022/04/08 01:55:21;;;;;;;6.10;4.70;;;;;;;;;;4233126;33;20097;-69
2022/04/08 01:57:47;;;;;;;5.28;4.03;;;;;;;;;;4232863;33;20120;-72
2022/04/08 02:00:13;;;;;;;6.35;3.97;;;;;;;;;;4243596;33;20551;-72
2022/04/08 02:02:40;;;;;;;4.90;4.18;;;;;;;;;;4233092;33;20109;-72
2022/04/08 02:05:07;;;;;;;5.80;4.15;;;;;;;;;;4232818;33;20133;-72
2022/04/08 02:07:32;;;;;;;6.57;4.65;;;;;;;;;;4219427;33;20511;-72
2022/04/08 02:09:58;;;;;;;5.12;3.80;;;;;;;;;;4232976;33;20105;-72
2022/04/08 02:12:25;;;;;;;5.50;3.47;;;;;;;;;;4232422;33;20137;-73
2022/04/08 02:14:51;;;;;;;5.78;4.47;;;;;;;;;;4243396;33;20116;-72
2022/04/08 02:17:18;;;;;;;4.65;3.92;;;;;;;;;;4221964;33;20097;-72
2022/04/08 02:19:44;;;;;;;5.60;4.12;;;;;;;;;;4232753;33;20172;-72
2022/04/08 02:22:10;;;;;;;5.03;3.70;;;;;;;;;;4232495;33;20118;-73
2022/04/08 02:24:36;;;;;;;6.72;4.03;;;;;;;;;;4232997;33;20127;-75
2022/04/08 02:27:06;;;;;;;4.40;3.92;;;;;;;;;;4233094;33;20143;-82
2022/04/08 02:29:35;;;;;;;4.72;4.05;;;;;;;;;;4219764;33;20116;-74
2022/04/08 02:32:01;;;;;;;5.75;4.12;;;;;;;;;;4207926;33;20465;-72
2022/04/08 02:34:27;;;;;;;10.20;4.03;;;;;;;;;;4219555;33;20117;-78
2022/04/08 02:36:53;;;;;;;3.00;2.53;;;;;;;;;;4232687;33;20135;-74
2022/04/08 02:39:19;;;;;;;9.77;3.97;;;;;;;;;;4231318;33;20191;-75
2022/04/08 02:41:45;;;;;;;11.32;3.62;;;;;;;;;;4232552;33;20545;-75
2022/04/08 02:44:11;;;;;;;5.72;3.75;;;;;;;;;;4231084;33;20753;-75
2022/04/08 02:46:37;;;;;;;5.70;3.87;;;;;;;;;;4232572;33;20172;-72
2022/04/08 02:49:03;;;;;;;9.45;4.20;;;;;;;;;;4232722;33;20093;-73
2022/04/08 02:51:29;;;;;;;6.82;4.37;;;;;;;;;;4232425;33;20206;-77
2022/04/08 02:53:56;;;;;;;4.95;3.92;;;;;;;;;;4219477;33;20517;-71
2022/04/08 02:56:22;;;;;;;6.82;3.60;;;;;;;;;;4219410;33;20096;-72
2022/04/08 02:58:48;;;;;;;5.55;3.60;;;;;;;;;;4232597;33;20243;-72
2022/04/08 03:01:17;;;;;;;7.60;4.22;;;;;;;;;;4232315;33;20218;-74
2022/04/08 03:03:43;;;;;;;6.12;3.70;;;;;;;;;;4231417;33;20101;-75
2022/04/08 03:06:09;;;;;;;8.48;4.00;;;;;;;;;;4232348;33;20224;-75
2022/04/08 03:08:35;;;;;;;6.60;4.10;;;;;;;;;;4218561;33;20191;-74
2022/04/08 03:11:01;;;;;;;12.40;4.20;;;;;;;;;;4233024;33;20116;-75
2022/04/08 03:13:27;;;;;;;5.60;3.92;;;;;;;;;;4216012;33;20110;-73
2022/04/08 03:15:53;;;;;;;4.62;3.62;;;;;;;;;;4231393;33;20254;-75
2022/04/08 03:18:19;;;;;;;8.27;4.20;;;;;;;;;;4230147;33;20090;-75
2022/04/08 03:20:45;;;;;;;5.22;3.58;;;;;;;;;;4231206;33;20117;-74
2022/04/08 03:23:11;;;;;;;5.35;3.12;;;;;;;;;;4226537;33;20140;-70
2022/04/08 03:25:38;;;;;;;5.45;4.20;;;;;;;;;;4232147;33;20101;-70
2022/04/08 03:28:04;;;;;;;6.97;4.10;;;;;;;;;;4231460;33;20081;-67
2022/04/08 03:30:31;;;;;;;6.40;4.32;;;;;;;;;;4231294;33;20121;-69
2022/04/08 03:32:57;;;;;;;9.20;4.60;;;;;;;;;;4218355;33;20105;-67
2022/04/08 03:35:23;;;;;;;8.15;4.03;;;;;;;;;;4231422;33;20113;-69
2022/04/08 03:37:49;;;;;;;6.95;3.55;;;;;;;;;;4230853;33;20150;-69
2022/04/08 03:40:16;;;;;;;7.30;4.70;;;;;;;;;;4231103;33;20129;-69
2022/04/08 03:42:42;;;;;;;11.93;4.25;;;;;;;;;;4231934;33;20119;-69
2022/04/08 03:45:08;;;;;;;8.63;4.12;;;;;;;;;;4231701;33;20105;-69
2022/04/08 03:47:34;;;;;;;7.47;4.37;;;;;;;;;;4207139;33;20134;-69
2022/04/08 03:50:00;;;;;;;12.55;3.40;;;;;;;;;;4218835;33;20560;-69
2022/04/08 03:52:32;;;;;;;7.85;4.40;;;;;;;;;;4218721;33;21090;-69
2022/04/08 03:54:59;;;;;;;9.20;3.55;;;;;;;;;;4219339;33;20108;-69
2022/04/08 03:57:26;;;;;;;9.45;4.03;;;;;;;;;;4207509;33;20188;-69
2022/04/08 03:59:52;;;;;;;7.32;4.45;;;;;;;;;;4218955;33;20108;-68
2022/04/08 04:02:19;;;;;;;7.50;4.32;;;;;;;;;;4231743;33;20108;-68
2022/04/08 04:04:45;;;;;;;4.45;3.90;;;;;;;;;;4231863;33;20129;-69
2022/04/08 04:07:11;;;;;;;16.27;4.37;;;;;;;;;;4207055;33;20144;-68
2022/04/08 04:09:37;;;;;;;8.23;3.83;;;;;;;;;;4231897;33;20090;-69
2022/04/08 04:12:03;;;;;;;5.68;3.58;;;;;;;;;;4218681;33;20125;-70
2022/04/08 04:14:29;;;;;;;1.87;1.77;;;;;;;;;;4230137;33;20212;-70
2022/04/08 04:16:55;;;;;;;7.82;2.17;;;;;;;;;;4218519;33;20105;-69
2022/04/08 04:19:21;;;;;;;1.40;1.30;;;;;;;;;;4218379;33;20109;-69
2022/04/08 04:21:49;;;;;;;2.78;1.52;;;;;;;;;;4231277;33;20127;-68
2022/04/08 04:24:15;;;;;;;1.58;1.48;;;;;;;;;;4217886;33;20608;-69
2022/04/08 04:26:41;;;;;;;2.20;1.35;;;;;;;;;;4218100;33;20604;-71
2022/04/08 04:29:07;;;;;;;2.28;1.48;;;;;;;;;;4231548;33;20200;-71
2022/04/08 04:31:33;;;;;;;1.60;1.50;;;;;;;;;;4220212;33;20131;-69
2022/04/08 04:33:59;;;;;;;2.20;2.00;;;;;;;;;;4233551;33;20120;-69
2022/04/08 04:36:25;;;;;;;4.05;1.80;;;;;;;;;;4233534;33;20536;-68
2022/04/08 04:38:51;;;;;;;1.08;1.08;;;;;;;;;;4208828;33;20445;-68
2022/04/08 04:41:18;;;;;;;2.08;1.83;;;;;;;;;;4232085;33;20307;-68
2022/04/08 04:43:44;;;;;;;6.00;3.00;;;;;;;;;;4233584;33;20140;-70
2022/04/08 04:46:10;;;;;;;4.40;2.83;;;;;;;;;;4220254;33;20632;-70
2022/04/08 04:48:36;;;;;;;9.80;4.18;;;;;;;;;;4220440;33;20129;-70
2022/04/08 04:51:02;;;;;;;7.07;2.40;;;;;;;;;;4220299;33;20220;-69
2022/04/08 04:53:28;;;;;;;5.28;2.33;;;;;;;;;;4233230;33;20465;-69
2022/04/08 04:55:56;;;;;;;4.65;3.30;;;;;;;;;;4220307;33;20160;-70
2022/04/08 04:58:22;;;;;;;5.40;2.95;;;;;;;;;;4220911;33;20286;-70
2022/04/08 05:00:48;;;;;;;8.40;3.75;;;;;;;;;;4220341;33;20579;-72
2022/04/08 05:03:14;;;;;;;12.32;4.32;;;;;;;;;;4231997;33;20109;-69
2022/04/08 05:05:41;;;;;;;11.32;3.92;;;;;;;;;;4220349;33;20184;-70
2022/04/08 05:08:07;;;;;;;2.30;2.08;;;;;;;;;;4220607;33;20189;-70
2022/04/08 05:10:33;;;;;;;5.75;3.03;;;;;;;;;;4231667;33;20651;-70
2022/04/08 05:13:00;;;;;;;14.82;4.10;;;;;;;;;;4220219;33;20124;-70
2022/04/08 05:15:26;;;;;;;3.92;3.03;;;;;;;;;;4233485;33;20211;-72
2022/04/08 05:17:53;;;;;;;6.55;2.95;;;;;;;;;;4220361;33;20120;-71
2022/04/08 05:20:20;;;;;;;8.85;4.10;;;;;;;;;;4220001;33;20188;-70
2022/04/08 05:22:46;;;;;;;2.47;1.77;;;;;;;;;;4220128;33;20121;-73
2022/04/08 05:25:12;;;;;;;1.75;1.65;;;;;;;;;;4231786;33;20100;-72
2022/04/08 05:27:39;;;;;;;7.47;3.20;;;;;;;;;;4219965;33;20164;-73
2022/04/08 05:30:10;;;;;;;7.72;3.40;;;;;;;;;;4208543;33;20121;-72
2022/04/08 05:32:36;;;;;;;1.52;1.42;;;;;;;;;;4208676;33;20108;-72
2022/04/08 05:35:02;;;;;;;1.58;1.48;;;;;;;;;;4231693;33;20180;-68
2022/04/08 05:37:29;;;;;;;1.40;1.30;;;;;;;;;;4230741;33;20160;-68
2022/04/08 05:39:55;;;;;;;1.42;1.33;;;;;;;;;;4231213;33;20190;-68
2022/04/08 05:42:22;;;;;;;1.85;1.48;;;;;;;;;;4242661;33;20208;-69
2022/04/08 05:44:48;;;;;;;4.53;3.42;;;;;;;;;;4233070;33;20204;-71
2022/04/08 05:47:14;;;;;;;2.22;2.00;;;;;;;;;;4231563;33;20132;-70
2022/04/08 05:49:40;;;;;;;5.85;3.85;;;;;;;;;;4219986;33;20129;-71
2022/04/08 05:52:06;;;;;;;12.23;4.18;;;;;;;;;;4232878;33;20116;-70
2022/04/08 05:54:32;;;;;;;4.82;3.25;;;;;;;;;;4243337;33;20607;-70
2022/04/08 05:57:00;;;;;;;2.37;2.17;;;;;;;;;;4232848;33;20204;-73
2022/04/08 05:59:28;;;;;;;11.32;3.80;;;;;;;;;;4243184;33;20117;-73
2022/04/08 06:01:54;;;;;;;2.05;1.85;;;;;;;;;;4220181;33;20204;-72
2022/04/08 06:04:23;;;;;;;2.55;2.28;;;;;;;;;;4220113;33;20504;-72
2022/04/08 06:06:50;;;;;;;1.48;1.37;;;;;;;;;;4243121;33;20120;-72
2022/04/08 06:09:16;;;;;;;1.20;1.20;;;;;;;;;;4232831;33;20113;-72
2022/04/08 06:11:44;;;;;;;1.92;1.58;;;;;;;;;;4232670;33;20508;-72
2022/04/08 06:14:10;;;;;;;10.75;5.70;;;;;;;;;;4243365;33;20130;-72
2022/04/08 06:16:36;;;;;;;11.25;5.20;;;;;;;;;;4232686;33;20201;-72
2022/04/08 06:19:02;;;;;;;9.23;4.78;;;;;;;;;;4232765;33;20137;-71
2022/04/08 06:21:28;;;;;;;7.97;4.25;;;;;;;;;;4219558;33;20100;-72
2022/04/08 06:23:54;;;;;;;5.57;4.10;;;;;;;;;;4237129;33;20532;-72
2022/04/08 06:26:20;;;;;;;9.55;4.25;;;;;;;;;;4219552;33;20093;-72
2022/04/08 06:28:46;;;;;;;10.75;4.07;;;;;;;;;;4232761;33;20603;-72
2022/04/08 06:31:12;;;;;;;5.55;3.75;;;;;;;;;;4219741;33;20115;-72
2022/04/08 06:33:38;;;;;;;6.15;3.30;;;;;;;;;;4220247;33;20093;-72
2022/04/08 06:36:04;;;;;;;6.95;3.58;;;;;;;;;;4233139;33;20136;-73
2022/04/08 06:38:30;;;;;;;6.97;3.30;;;;;;;;;;4219840;33;20102;-73
2022/04/08 06:40:56;;;;;;;6.35;3.20;;;;;;;;;;4232816;33;20113;-73
2022/04/08 06:43:22;;;;;;;5.15;3.70;;;;;;;;;;4219913;33;20135;-73
2022/04/08 06:45:49;;;;;;;7.50;4.20;;;;;;;;;;4219652;33;20112;-72
2022/04/08 06:48:16;;;;;;;18.00;3.97;;;;;;;;;;4219535;33;20124;-74
2022/04/08 06:50:42;;;;;;;3.92;3.40;;;;;;;;;;4207886;33;20140;-72
2022/04/08 06:53:08;;;;;;;12.95;3.17;;;;;;;;;;4232184;33;20111;-72
2022/04/08 06:55:34;;;;;;;6.28;3.83;;;;;;;;;;4232412;33;20544;-72
2022/04/08 06:58:01;;;;;;;13.45;3.60;;;;;;;;;;4219390;33;20089;-73
2022/04/08 07:00:27;;;;;;;8.30;3.53;;;;;;;;;;4219231;33;20124;-72
2022/04/08 07:02:53;;;;;;;11.12;3.78;;;;;;;;;;4219529;33;20225;-72
2022/04/08 07:05:19;;;;;;;6.80;4.60;;;;;;;;;;4207878;33;20115;-72
2022/04/08 07:07:45;;;;;;;12.68;3.80;;;;;;;;;;4233296;33;20120;-71
2022/04/08 07:10:12;;;;;;;9.35;4.50;;;;;;;;;;4207553;33;20207;-73
2022/04/08 07:12:38;;;;;;;7.18;3.40;;;;;;;;;;4232942;33;20120;-71
2022/04/08 07:15:05;;;;;;;7.28;3.28;;;;;;;;;;4231762;33;20514;-71
2022/04/08 07:17:36;;;;;;;9.18;3.37;;;;;;;;;;4232176;33;20505;-73
2022/04/08 07:20:04;;;;;;;8.45;3.85;;;;;;;;;;4219523;33;20144;-72
2022/04/08 07:22:31;;;;;;;9.38;3.87;;;;;;;;;;4207355;33;20117;-71
2022/04/08 07:24:57;;;;;;;11.07;3.78;;;;;;;;;;4219051;33;20781;-71
2022/04/08 07:27:23;;;;;;;4.65;3.30;;;;;;;;;;4219202;33;20125;-70
2022/04/08 07:29:50;;;;;;;4.57;3.12;;;;;;;;;;4207886;33;20116;-70
2022/04/08 07:32:25;;;;;;;7.22;3.80;;;;;;;;;;4219104;33;20176;-69
2022/04/08 07:34:51;;;;;;;12.60;3.75;;;;;;;;;;4220058;33;20128;-69
2022/04/08 07:37:31;;;;;;;9.10;4.12;;;;;;;;;;4231988;33;20120;-69
2022/04/08 07:39:57;;;;;;;8.93;3.90;;;;;;;;;;4232167;33;20133;-70
2022/04/08 07:42:24;;;;;;;5.45;3.40;;;;;;;;;;4219074;33;20108;-69
2022/04/08 07:44:50;;;;;;;9.23;3.50;;;;;;;;;;4230519;33;20111;-72
2022/04/08 07:47:18;;;;;;;10.00;4.03;;;;;;;;;;4196026;33;20533;-76
2022/04/08 07:49:44;;;;;;;6.82;3.90;;;;;;;;;;4220099;33;20523;-76
2022/04/08 07:52:10;;;;;;;9.02;3.67;;;;;;;;;;4218867;33;20220;-70
2022/04/08 07:54:36;;;;;;;5.97;3.20;;;;;;;;;;4218844;33;20651;-73
2022/04/08 07:57:02;;;;;;;7.87;3.78;;;;;;;;;;4231752;33;20109;-71
2022/04/08 07:59:28;;;;;;;14.60;3.45;;;;;;;;;;4218964;33;20120;-72
2022/04/08 08:01:54;;;;;;;11.57;3.95;;;;;;;;;;4218737;33;20137;-68
2022/04/08 08:04:21;;;;;;;9.80;4.10;;;;;;;;;;4231583;33;20112;-69
2022/04/08 08:06:48;;;;;;;8.25;3.90;;;;;;;;;;4232327;33;20204;-70
2022/04/08 08:09:14;;;;;;;7.90;3.80;;;;;;;;;;4233745;33;20522;-70
2022/04/08 08:11:40;;;;;;;8.90;3.72;;;;;;;;;;4233659;33;20132;-71
2022/04/08 08:14:06;;;;;;;7.47;3.28;;;;;;;;;;4232568;33;20100;-69
2022/04/08 08:16:32;;;;;;;5.28;3.83;;;;;;;;;;4234243;33;20197;-69
2022/04/08 08:18:59;;;;;;;5.65;3.58;;;;;;;;;;4220550;33;20121;-69
2022/04/08 08:21:25;;;;;;;8.27;3.45;;;;;;;;;;4233507;33;20219;-70
2022/04/08 08:23:51;;;;;;;5.18;3.35;;;;;;;;;;4209238;33;20097;-70
2022/04/08 08:26:17;;;;;;;9.35;3.50;;;;;;;;;;4220820;33;20097;-70
2022/04/08 08:28:43;;;;;;;6.30;3.00;;;;;;;;;;4221101;33;20429;-70
2022/04/08 08:31:09;;;;;;;9.02;3.10;;;;;;;;;;4233021;33;20105;-70
2022/04/08 08:33:35;;;;;;;12.60;3.50;;;;;;;;;;4220778;33;20105;-70
2022/04/08 08:36:02;;;;;;;8.23;2.78;;;;;;;;;;4220580;33;20125;-70
2022/04/08 08:38:28;;;;;;;8.75;3.30;;;;;;;;;;4209178;33;20217;-70
2022/04/08 08:40:55;;;;;;;5.65;3.40;;;;;;;;;;4220523;33;20097;-70
2022/04/08 08:43:21;;;;;;;7.18;3.00;;;;;;;;;;4220410;33;21032;-69
2022/04/08 08:45:48;;;;;;;7.78;3.28;;;;;;;;;;4233366;33;20144;-69
2022/04/08 08:48:17;;;;;;;15.70;3.72;;;;;;;;;;4220294;33;20097;-69
2022/04/08 08:50:48;;;;;;;2.50;1.87;;;;;;;;;;4231473;33;20132;-70
2022/04/08 08:53:20;;;;;;;1.50;1.40;;;;;;;;;;4233166;33;20209;-74
2022/04/08 08:55:48;;;;;;;2.65;1.50;;;;;;;;;;4207910;33;20306;-71
2022/04/08 08:58:16;;;;;;;1.10;1.10;;;;;;;;;;4220421;33;20137;-72
2022/04/08 09:00:42;;;;;;;1.10;1.10;;;;;;;;;;4220149;33;20211;-72
2022/04/08 09:03:09;;;;;;;6.05;2.47;;;;;;;;;;4208920;33;20453;-73
2022/04/08 09:05:44;;;;;;;2.90;1.83;;;;;;;;;;4220229;33;20156;-74
2022/04/08 09:08:10;;;;;;;1.52;1.42;;;;;;;;;;4201380;33;20597;-69
2022/04/08 09:10:39;;;;;;;9.00;2.03;;;;;;;;;;4236949;33;20204;-73
2022/04/08 09:13:07;;;;;;;1.40;1.30;;;;;;;;;;4221837;33;20098;-73
2022/04/08 09:15:39;;;;;;;1.52;1.42;;;;;;;;;;4220102;33;20200;-72
2022/04/08 09:18:09;;;;;;;1.45;1.35;;;;;;;;;;4220202;33;20112;-70
2022/04/08 09:20:45;;;;;;;1.70;1.60;;;;;;;;;;4233279;33;20133;-72
2022/04/08 09:23:13;;;;;;;2.95;2.10;;;;;;;;;;4208344;33;20759;-69
2022/04/08 09:25:40;;;;;;;4.25;2.20;;;;;;;;;;4232996;33;20493;-72
2022/04/08 09:28:11;;;;;;;2.53;2.10;;;;;;;;;;4233216;33;20207;-74
2022/04/08 09:30:41;;;;;;;1.90;1.75;;;;;;;;;;4233380;33;20101;-74
2022/04/08 09:33:19;;;;;;;4.20;1.80;;;;;;;;;;4220053;33;20117;-73
2022/04/08 09:35:45;;;;;;;2.17;1.50;;;;;;;;;;4220597;33;20211;-73
2022/04/08 09:38:12;;;;;;;1.65;1.55;;;;;;;;;;4208760;33;20422;-73
2022/04/08 09:40:44;;;;;;;5.50;2.05;;;;;;;;;;4219946;33;20452;-73
2022/04/08 09:43:12;;;;;;;3.80;2.35;;;;;;;;;;4220403;33;20110;-73
2022/04/08 09:45:38;;;;;;;1.48;1.37;;;;;;;;;;4220342;33;20652;-73
2022/04/08 09:48:06;;;;;;;1.17;1.10;;;;;;;;;;4219929;33;20112;-72
2022/04/08 09:50:32;;;;;;;2.30;1.65;;;;;;;;;;4220045;33;20132;-73
2022/04/08 09:52:58;;;;;;;2.65;2.15;;;;;;;;;;4231747;33;20129;-72
2022/04/08 09:55:25;;;;;;;1.20;1.20;;;;;;;;;;4232376;33;20223;-71
2022/04/08 09:57:57;;;;;;;1.50;1.40;;;;;;;;;;4218726;33;20120;-72
2022/04/08 10:00:27;;;;;;;1.75;1.65;;;;;;;;;;4228310;33;20105;-70
2022/04/08 10:02:55;;;;;;;1.25;1.20;;;;;;;;;;4206415;34;20193;-69
2022/04/08 10:05:24;;;;;;;3.60;1.80;;;;;;;;;;4204689;33;20124;-68
2022/04/08 10:07:54;;;;;;;3.85;2.85;;;;;;;;;;4206412;34;20513;-69
2022/04/08 10:10:29;;;;;;;1.10;1.10;;;;;;;;;;4206645;33;20101;-69
2022/04/08 10:13:09;;;;;;;1.90;1.62;;;;;;;;;;4194182;34;20120;-69
2022/04/08 10:16:01;;;;;;;3.87;2.28;;;;;;;;;;4218992;33;20855;-67
2022/04/08 10:18:37;;;;;;;2.47;1.90;;;;;;;;;;4218629;34;20108;-69
2022/04/08 10:21:04;;;;;;;1.48;1.37;;;;;;;;;;4206030;34;20546;-65
2022/04/08 10:23:56;;;;;;;3.15;1.85;;;;;;;;;;4224577;33;20184;-67
2022/04/08 10:26:26;;;;;;;1.33;1.23;;;;;;;;;;4228558;33;20117;-67
2022/04/08 10:28:54;;;;;;;1.10;1.10;;;;;;;;;;4233373;33;20120;-70
2022/04/08 10:31:23;;;;;;;3.03;2.08;;;;;;;;;;4216789;33;20113;-69
2022/04/08 10:34:00;;;;;;;2.97;1.60;;;;;;;;;;4217185;33;20545;-73
2022/04/08 10:36:41;;;;;;;13.15;3.58;;;;;;;;;;4230007;33;20109;-64
2022/04/08 10:39:12;;;;;;;11.48;3.70;;;;;;;;;;4230109;33;20108;-63
2022/04/08 10:41:45;;;;;;;6.68;2.87;;;;;;;;;;4218166;33;20124;-63
2022/04/08 10:44:11;;;;;;;7.00;3.42;;;;;;;;;;4232494;33;20121;-63
2022/04/08 10:46:48;;;;;;;11.38;3.25;;;;;;;;;;4231479;33;20558;-63
2022/04/08 10:49:14;;;;;;;7.60;2.75;;;;;;;;;;4230847;33;20456;-64
2022/04/08 10:51:48;;;;;;;5.45;2.70;;;;;;;;;;4229360;33;20128;-64
2022/04/08 10:54:15;;;;;;;1.67;1.50;;;;;;;;;;4206536;34;20117;-66
2022/04/08 10:56:41;;;;;;;6.80;3.22;;;;;;;;;;4205383;34;20577;-65
2022/04/08 10:59:07;;;;;;;6.30;2.87;;;;;;;;;;4218073;34;20125;-66
2022/04/08 11:01:47;;;;;;;4.03;2.87;;;;;;;;;;4205364;34;20094;-65
2022/04/08 11:04:14;;;;;;;3.83;2.00;;;;;;;;;;4206746;33;20517;-65
2022/04/08 11:06:40;;;;;;;3.50;2.37;;;;;;;;;;4218535;33;20220;-65
2022/04/08 11:09:16;;;;;;;11.80;3.40;;;;;;;;;;4232403;33;20192;-64
2022/04/08 11:11:44;;;;;;;4.72;2.60;;;;;;;;;;4230878;33;20205;-66
2022/04/08 11:14:10;;;;;;;11.18;2.72;;;;;;;;;;4215794;33;20124;-67
2022/04/08 11:16:38;;;;;;;2.47;1.70;;;;;;;;;;4205597;33;20132;-68
2022/04/08 11:19:05;;;;;;;10.02;2.58;;;;;;;;;;4228739;33;20599;-67
2022/04/08 11:21:34;;;;;;;3.58;2.67;;;;;;;;;;4204495;34;21022;-68
2022/04/08 11:24:02;;;;;;;5.03;2.80;;;;;;;;;;4211163;33;20108;-67
2022/04/08 11:26:29;;;;;;;4.65;2.75;;;;;;;;;;4215802;33;20189;-67
2022/04/08 11:28:56;;;;;;;7.03;2.90;;;;;;;;;;4217383;33;20121;-67
2022/04/08 11:31:22;;;;;;;4.00;2.53;;;;;;;;;;4232435;33;20208;-65
2022/04/08 11:33:48;;;;;;;13.25;3.33;;;;;;;;;;4231941;33;20113;-67
2022/04/08 11:36:21;;;;;;;8.27;2.67;;;;;;;;;;4231936;33;20116;-66
2022/04/08 11:38:47;;;;;;;5.68;2.22;;;;;;;;;;4218972;33;20120;-66
2022/04/08 11:41:20;;;;;;;10.63;3.05;;;;;;;;;;4233554;33;20224;-66
2022/04/08 11:43:46;;;;;;;5.82;2.70;;;;;;;;;;4209520;33;20188;-66
2022/04/08 11:46:14;;;;;;;8.10;2.60;;;;;;;;;;4221334;33;20108;-66
2022/04/08 11:48:41;;;;;;;5.82;3.37;;;;;;;;;;4221293;33;20097;-69
2022/04/08 11:51:07;;;;;;;5.85;2.78;;;;;;;;;;4209471;33;20151;-68
2022/04/08 11:53:45;;;;;;;2.97;2.28;;;;;;;;;;4220957;33;20085;-68
2022/04/08 11:56:12;;;;;;;4.68;2.42;;;;;;;;;;4220670;33;20524;-66
2022/04/08 11:58:38;;;;;;;5.95;3.08;;;;;;;;;;4230904;33;20216;-67
2022/04/08 12:01:05;;;;;;;6.37;3.00;;;;;;;;;;4217190;33;20124;-67
2022/04/08 12:03:33;;;;;;;6.65;2.58;;;;;;;;;;4216103;33;20567;-67
2022/04/08 12:06:00;;;;;;;2.60;2.10;;;;;;;;;;4217467;33;20168;-68
2022/04/08 12:08:27;;;;;;;11.90;3.05;;;;;;;;;;4220865;33;20211;-68
2022/04/08 12:10:55;;;;;;;3.37;2.67;;;;;;;;;;4232253;33;20117;-68
2022/04/08 12:13:26;;;;;;;11.93;4.12;;;;;;;;;;4232323;33;20512;-65
2022/04/08 12:15:57;;;;;;;6.40;3.37;;;;;;;;;;4220804;33;20519;-66
2022/04/08 12:18:32;;;;;;;6.70;4.18;;;;;;;;;;4220596;33;20200;-66
2022/04/08 12:21:00;;;;;;;9.20;4.68;;;;;;;;;;4208793;33;20154;-65
2022/04/08 12:23:27;;;;;;;7.80;4.28;;;;;;;;;;4220515;33;20081;-63
2022/04/08 12:25:56;;;;;;;12.23;5.68;;;;;;;;;;4220396;33;20119;-63
2022/04/08 12:28:23;;;;;;;7.75;4.95;;;;;;;;;;4233666;33;20193;-65
2022/04/08 12:30:50;;;;;;;10.95;4.50;;;;;;;;;;4220516;33;20093;-64
2022/04/08 12:33:17;;;;;;;17.80;4.90;;;;;;;;;;4220312;33;20108;-67
2022/04/08 12:35:46;;;;;;;6.25;2.40;;;;;;;;;;4209033;33;20127;-68
2022/04/08 12:38:19;;;;;;;7.87;2.95;;;;;;;;;;4220590;33;20101;-68
2022/04/08 12:40:49;;;;;;;6.70;2.53;;;;;;;;;;4220872;33;20113;-67
2022/04/08 12:43:15;;;;;;;12.35;2.30;;;;;;;;;;4220294;33;20113;-67
2022/04/08 12:45:42;;;;;;;5.10;2.53;;;;;;;;;;4220052;33;20519;-67
2022/04/08 12:48:08;;;;;;;5.62;2.62;;;;;;;;;;4233259;33;20097;-67
2022/04/08 12:50:35;;;;;;;9.15;2.53;;;;;;;;;;4219889;33;20597;-66
2022/04/08 12:53:02;;;;;;;7.30;4.50;;;;;;;;;;4232799;33;20120;-67
2022/04/08 12:55:28;;;;;;;4.57;3.00;;;;;;;;;;4231812;33;20113;-68
2022/04/08 12:57:54;;;;;;;6.62;2.97;;;;;;;;;;4220148;33;20132;-68
2022/04/08 13:00:20;;;;;;;5.87;3.12;;;;;;;;;;4231592;33;20204;-68
2022/04/08 13:02:47;;;;;;;8.05;4.00;;;;;;;;;;4233503;33;20108;-68
2022/04/08 13:05:14;;;;;;;5.68;3.58;;;;;;;;;;4219961;33;20124;-68
2022/04/08 13:07:40;;;;;;;3.70;2.17;;;;;;;;;;4220309;33;20109;-68
2022/04/08 13:10:07;;;;;;;9.20;3.67;;;;;;;;;;4208632;33;20540;-68
2022/04/08 13:12:35;;;;;;;12.20;6.87;;;;;;;;;;4220251;33;20207;-67
2022/04/08 13:15:05;;;;;;;7.53;2.72;;;;;;;;;;4220142;33;20450;-68
2022/04/08 13:17:32;;;;;;;9.02;4.82;;;;;;;;;;4220180;33;20211;-68
2022/04/08 13:19:58;;;;;;;7.60;3.70;;;;;;;;;;4220034;33;20129;-68
2022/04/08 13:22:24;;;;;;;5.85;3.55;;;;;;;;;;4233301;33;20117;-66
2022/04/08 13:24:50;;;;;;;7.40;3.37;;;;;;;;;;4220165;33;20120;-66
2022/04/08 13:27:16;;;;;;;9.88;4.37;;;;;;;;;;4233102;33;20121;-62
2022/04/08 13:29:48;;;;;;;9.50;3.40;;;;;;;;;;4230982;33;20219;-62
2022/04/08 13:32:20;;;;;;;6.43;3.35;;;;;;;;;;4229119;33;20204;-66
2022/04/08 13:34:46;;;;;;;10.85;2.92;;;;;;;;;;4218148;33;20128;-67
2022/04/08 13:37:12;;;;;;;9.27;3.10;;;;;;;;;;4218485;33;20093;-66
2022/04/08 13:39:39;;;;;;;20.85;3.50;;;;;;;;;;4232293;33;20200;-66
2022/04/08 13:42:05;;;;;;;5.97;3.17;;;;;;;;;;4229979;33;20128;-66
2022/04/08 13:44:33;;;;;;;9.38;3.90;;;;;;;;;;4231968;33;20529;-64
2022/04/08 13:47:00;;;;;;;8.43;3.55;;;;;;;;;;4217830;33;20124;-63
2022/04/08 13:49:27;;;;;;;11.98;3.55;;;;;;;;;;4231825;33;20209;-64
2022/04/08 13:51:54;;;;;;;8.23;5.00;;;;;;;;;;4220270;33;20105;-66
2022/04/08 13:54:31;;;;;;;8.80;4.70;;;;;;;;;;4229805;33;20477;-65
2022/04/08 13:56:56;;;;;;;13.05;4.20;;;;;;;;;;4232115;33;20114;-64
2022/04/08 13:59:22;;;;;;;12.48;4.35;;;;;;;;;;4236379;33;20109;-66
2022/04/08 14:01:49;;;;;;;9.32;4.12;;;;;;;;;;4236121;33;20088;-66
2022/04/08 14:04:15;;;;;;;6.00;3.28;;;;;;;;;;4231150;33;20441;-66
2022/04/08 14:06:41;;;;;;;10.10;3.78;;;;;;;;;;4218018;33;20136;-65
2022/04/08 14:09:07;;;;;;;11.90;3.62;;;;;;;;;;4204934;34;20658;-64
2022/04/08 14:11:34;;;;;;;4.97;4.18;;;;;;;;;;4211560;33;20506;-65
2022/04/08 14:14:00;;;;;;;8.13;3.10;;;;;;;;;;4221034;33;20435;-65
2022/04/08 14:16:26;;;;;;;11.12;3.60;;;;;;;;;;4218986;33;20198;-66
2022/04/08 14:18:52;;;;;;;10.10;3.12;;;;;;;;;;4217811;34;20112;-64
2022/04/08 14:21:18;;;;;;;7.90;3.80;;;;;;;;;;4204731;34;20121;-65
2022/04/08 14:23:44;;;;;;;8.60;2.83;;;;;;;;;;4217358;34;20140;-65
2022/04/08 14:26:11;;;;;;;7.97;5.10;;;;;;;;;;4239337;28;20113;-66
2022/04/08 14:28:37;;;;;;;9.75;4.00;;;;;;;;;;4231355;33;20209;-66
2022/04/08 14:31:26;;;;;;;4.32;2.92;;;;;;;;;;4230947;33;20116;-65
2022/04/08 14:34:46;;;;;;;5.70;3.67;;;;;;;;;;4216164;33;20103;-65
2022/04/08 14:39:10;;;;;;;7.70;3.70;;;;;;;;;;4132877;34;20631;-64
2022/04/08 14:49:56;;;;;;;;;;;;;;;;;;;;;
2022/04/08 15:11:38;;;;;;;8.90;3.97;;;;;;;;;;4170910;34;20217;-63
2022/04/08 15:18:26;;;;;;;8.90;3.87;;;;;;;;;;4180256;34;20265;-65
2022/04/08 15:28:29;;;;;;;11.12;6.03;;;;;;;;;;4193056;29;20164;-65
2022/04/08 15:40:03;;;;;;;10.48;6.32;;;;;;;;;;4022926;35;20632;-65
2022/04/08 15:51:54;;;;;;;16.95;8.95;;;;;;;;;;4185607;34;20125;-68
2022/04/08 16:05:27;;;;;;;;;;;;;;;;;;4100885;29;20140;-66
2022/04/08 16:13:53;;;;;;;;;;;;;;;;;;;;;
2022/04/08 16:16:37;;;;;;;10.88;5.50;;;;;;;;;;3819049;37;20103;-63
2022/04/08 16:19:03;;;;;;;9.93;5.32;;;;;;;;;;4385220;32;20202;-67
2022/04/08 16:21:29;;;;;;;12.20;6.45;;;;;;;;;;4386870;32;20139;-66
2022/04/08 16:23:56;;;;;;;12.13;6.57;;;;;;;;;;4385655;32;20584;-66